createdAt,value
2023-05-19T00:00:25.839Z,1.83
2023-05-19T00:02:57.277Z,2.33
2023-05-19T00:05:28.299Z,2.53
2023-05-19T00:08:01.673Z,2.03
2023-05-19T00:10:32.003Z,2.33
2023-05-19T00:13:02.511Z,2.00
2023-05-19T00:15:32.297Z,1.92
2023-05-19T00:18:04.376Z,2.20
2023-05-19T00:20:33.540Z,2.10
2023-05-19T00:23:04.768Z,2.60
2023-05-19T00:25:34.646Z,2.55
2023-05-19T00:28:04.733Z,2.35
2023-05-19T00:30:33.905Z,2.25
2023-05-19T00:33:02.838Z,2.15
2023-05-19T00:35:31.546Z,2.30
2023-05-19T00:38:00.206Z,2.55
2023-05-19T00:40:33.265Z,2.15
2023-05-19T00:43:02.948Z,2.50
2023-05-19T00:45:32.327Z,2.13
2023-05-19T00:48:02.357Z,2.40
2023-05-19T00:50:31.778Z,2.55
2023-05-19T00:53:00.445Z,2.45
2023-05-19T00:55:33.343Z,2.25
2023-05-19T00:58:03.769Z,2.20
2023-05-19T01:03:20.964Z,2.55
2023-05-19T01:05:50.124Z,2.90
2023-05-19T01:08:20.225Z,2.30
2023-05-19T01:10:49.975Z,2.13
2023-05-19T01:13:18.395Z,2.03
2023-05-19T01:15:59.975Z,2.38
2023-05-19T01:19:04.500Z,2.10
2023-05-19T01:21:59.053Z,2.33
2023-05-19T01:24:45.374Z,2.10
2023-05-19T01:27:48.476Z,1.90
2023-05-19T01:30:31.548Z,2.17
2023-05-19T01:33:06.148Z,2.45
2023-05-19T01:35:37.758Z,2.22
2023-05-19T01:38:20.684Z,2.17
2023-05-19T01:40:54.631Z,2.00
2023-05-19T01:43:26.849Z,2.17
2023-05-19T01:45:59.978Z,2.10
2023-05-19T01:48:30.298Z,2.05
2023-05-19T01:51:01.181Z,2.20
2023-05-19T01:53:29.828Z,2.85
2023-05-19T01:55:58.925Z,2.45
2023-05-19T01:58:39.855Z,2.50
2023-05-19T02:01:18.764Z,2.35
2023-05-19T02:04:04.429Z,2.25
2023-05-19T02:06:43.459Z,2.38
2023-05-19T02:09:23.047Z,2.20
2023-05-19T02:11:56.456Z,2.15
2023-05-19T02:14:32.545Z,1.70
2023-05-19T02:17:04.895Z,2.10
2023-05-19T02:19:34.813Z,2.47
2023-05-19T02:22:03.482Z,2.45
2023-05-19T02:24:33.163Z,2.83
2023-05-19T02:27:01.748Z,2.25
2023-05-19T02:29:32.799Z,2.63
2023-05-19T02:32:04.286Z,2.30
2023-05-19T02:34:34.038Z,2.90
2023-05-19T02:37:03.682Z,2.50
2023-05-19T02:39:35.429Z,2.42
2023-05-19T02:42:04.106Z,2.63
2023-05-19T02:44:34.960Z,2.08
2023-05-19T02:47:07.384Z,2.55
2023-05-19T02:49:38.545Z,2.47
2023-05-19T02:52:08.677Z,2.10
2023-05-19T02:54:37.262Z,2.92
2023-05-19T02:57:06.898Z,2.50
2023-05-19T02:59:36.776Z,2.47
2023-05-19T03:02:07.319Z,2.28
2023-05-19T03:04:43.282Z,2.13
2023-05-19T03:07:13.686Z,2.60
2023-05-19T03:09:47.474Z,1.80
2023-05-19T03:12:16.948Z,2.20
2023-05-19T03:14:47.673Z,2.25
2023-05-19T03:17:22.475Z,2.53
2023-05-19T03:19:51.636Z,2.58
2023-05-19T03:22:21.414Z,2.10
2023-05-19T03:24:52.046Z,2.83
2023-05-19T03:27:21.668Z,2.05
2023-05-19T03:29:50.489Z,2.72
2023-05-19T03:32:22.044Z,2.22
2023-05-19T03:34:50.937Z,2.22
2023-05-19T03:37:20.794Z,2.70
2023-05-19T03:39:50.529Z,2.70
2023-05-19T03:42:19.476Z,2.10
2023-05-19T03:44:48.442Z,2.67
2023-05-19T03:47:17.408Z,2.42
2023-05-19T03:50:07.005Z,2.80
2023-05-19T03:52:58.900Z,2.20
2023-05-19T03:55:33.869Z,2.97
2023-05-19T03:58:03.844Z,2.97
2023-05-19T04:00:33.183Z,2.13
2023-05-19T04:03:02.807Z,2.10
2023-05-19T04:05:34.732Z,2.50
2023-05-19T04:08:05.261Z,2.40
2023-05-19T04:10:38.531Z,2.45
2023-05-19T04:13:08.267Z,2.60
2023-05-19T04:15:37.070Z,2.42
2023-05-19T04:18:08.459Z,3.03
2023-05-19T04:20:39.136Z,2.58
2023-05-19T04:23:08.976Z,2.67
2023-05-19T04:25:40.164Z,3.28
2023-05-19T04:28:09.400Z,2.58
2023-05-19T04:30:41.214Z,2.33
2023-05-19T04:33:13.453Z,2.00
2023-05-19T04:35:45.522Z,2.30
2023-05-19T04:38:19.579Z,2.33
2023-05-19T04:40:53.086Z,2.55
2023-05-19T04:43:26.648Z,2.63
2023-05-19T04:45:58.295Z,2.28
2023-05-19T04:48:31.253Z,3.45
2023-05-19T04:51:05.056Z,2.22
2023-05-19T04:53:34.792Z,2.42
2023-05-19T04:56:09.630Z,1.88
2023-05-19T04:58:39.692Z,2.53
2023-05-19T05:01:10.702Z,2.78
2023-05-19T05:03:40.094Z,2.00
2023-05-19T05:06:11.825Z,1.90
2023-05-19T05:08:42.151Z,2.50
2023-05-19T05:11:11.721Z,2.60
2023-05-19T05:13:41.837Z,2.50
2023-05-19T05:16:13.433Z,2.08
2023-05-19T05:18:44.903Z,2.40
2023-05-19T05:21:16.400Z,2.45
2023-05-19T05:23:48.265Z,2.33
2023-05-19T05:26:19.772Z,2.08
2023-05-19T05:28:54.294Z,1.85
2023-05-19T05:31:27.544Z,2.70
2023-05-19T05:33:58.494Z,1.88
2023-05-19T05:36:35.006Z,1.90
2023-05-19T05:39:05.631Z,1.85
2023-05-19T05:41:39.314Z,2.42
2023-05-19T05:44:12.645Z,2.30
2023-05-19T05:46:44.303Z,2.70
2023-05-19T05:49:14.550Z,1.70
2023-05-19T05:52:01.814Z,2.20
2023-05-19T05:54:37.219Z,1.60
2023-05-19T05:57:06.520Z,2.08
2023-05-19T05:59:34.992Z,2.20
2023-05-19T06:02:03.476Z,1.80
2023-05-19T06:07:20.660Z,2.47
2023-05-19T06:09:49.072Z,2.53
2023-05-19T06:12:19.331Z,2.08
2023-05-19T06:14:52.101Z,2.67
2023-05-19T06:17:39.563Z,2.17
2023-05-19T06:20:10.239Z,2.33
2023-05-19T06:22:41.394Z,1.90
2023-05-19T06:25:11.257Z,2.20
2023-05-19T06:27:40.528Z,1.77
2023-05-19T06:30:12.607Z,2.20
2023-05-19T06:32:54.897Z,1.88
2023-05-19T06:35:25.116Z,1.65
2023-05-19T06:37:58.138Z,2.00
2023-05-19T06:40:26.739Z,1.58
2023-05-19T06:42:56.634Z,1.50
2023-05-19T06:45:47.694Z,2.00
2023-05-19T06:48:16.570Z,1.88
2023-05-19T06:50:45.493Z,2.00
2023-05-19T06:53:18.715Z,1.85
2023-05-19T06:55:58.592Z,2.25
2023-05-19T06:58:29.302Z,2.45
2023-05-19T07:00:59.567Z,2.03
2023-05-19T07:03:33.451Z,1.63
2023-05-19T07:06:03.451Z,2.08
2023-05-19T07:08:37.409Z,1.58
2023-05-19T07:11:09.685Z,1.77
2023-05-19T07:13:38.240Z,1.80
2023-05-19T07:16:07.371Z,1.60
2023-05-19T07:18:36.124Z,2.10
2023-05-19T07:21:04.731Z,2.35
2023-05-19T07:23:35.526Z,1.42
2023-05-19T07:26:05.348Z,1.83
2023-05-19T07:28:34.522Z,2.10
2023-05-19T07:31:03.069Z,1.63
2023-05-19T07:33:33.710Z,1.50
2023-05-19T07:36:04.119Z,1.85
2023-05-19T07:38:34.792Z,1.42
2023-05-19T07:41:03.737Z,2.33
2023-05-19T07:43:32.551Z,1.33
2023-05-19T07:46:01.546Z,1.48
2023-05-19T07:48:30.374Z,1.45
2023-05-19T07:51:00.876Z,1.60
2023-05-19T07:53:30.134Z,2.03
2023-05-19T07:55:59.885Z,1.92
2023-05-19T07:58:28.664Z,1.55
2023-05-19T08:01:00.793Z,1.65
2023-05-19T08:03:30.827Z,1.55
2023-05-19T08:06:00.027Z,1.80
2023-05-19T08:08:30.288Z,1.38
2023-05-19T08:11:04.284Z,1.85
2023-05-19T08:13:34.777Z,1.50
2023-05-19T08:16:05.379Z,1.52
2023-05-19T08:18:34.557Z,1.80
2023-05-19T08:21:03.746Z,2.10
2023-05-19T08:23:32.373Z,1.40
2023-05-19T08:26:03.643Z,1.75
2023-05-19T08:28:32.036Z,1.65
2023-05-19T08:31:01.430Z,1.50
2023-05-19T08:33:31.883Z,1.60
2023-05-19T08:36:00.134Z,1.60
2023-05-19T08:38:29.555Z,1.50
2023-05-19T08:41:00.167Z,2.03
2023-05-19T08:43:32.808Z,1.40
2023-05-19T08:46:02.604Z,1.50
2023-05-19T08:48:32.241Z,1.50
2023-05-19T08:51:08.730Z,1.50
2023-05-19T08:53:40.786Z,1.38
2023-05-19T08:56:14.589Z,1.50
2023-05-19T08:58:46.368Z,1.58
2023-05-19T09:01:16.920Z,1.27
2023-05-19T09:03:46.798Z,1.38
2023-05-19T09:06:15.353Z,1.20
2023-05-19T09:08:47.682Z,1.70
2023-05-19T09:11:18.719Z,1.35
2023-05-19T09:13:52.353Z,1.60
2023-05-19T09:16:20.932Z,1.20
2023-05-19T09:18:56.307Z,1.25
2023-05-19T09:21:31.314Z,1.55
2023-05-19T09:24:07.281Z,1.20
2023-05-19T09:26:40.387Z,1.60
2023-05-19T09:29:20.500Z,1.23
2023-05-19T09:31:52.256Z,1.60
2023-05-19T09:34:22.455Z,1.90
2023-05-19T09:36:53.930Z,1.70
2023-05-19T09:39:26.918Z,1.88
2023-05-19T09:41:56.340Z,2.00
2023-05-19T09:44:29.947Z,1.60
2023-05-19T09:47:00.343Z,1.50
2023-05-19T09:49:31.544Z,1.52
2023-05-19T09:52:01.529Z,1.13
2023-05-19T09:54:33.265Z,1.45
2023-05-19T09:57:03.797Z,1.45
2023-05-19T09:59:34.859Z,1.48
2023-05-19T10:02:05.557Z,1.50
2023-05-19T10:04:34.655Z,1.02
2023-05-19T10:07:09.247Z,1.48
2023-05-19T10:09:40.752Z,1.90
2023-05-19T10:12:10.962Z,1.38
2023-05-19T10:14:43.675Z,1.65
2023-05-19T10:17:13.608Z,1.67
2023-05-19T10:19:43.849Z,1.40
2023-05-19T10:22:14.832Z,1.27
2023-05-19T10:24:43.996Z,1.50
2023-05-19T10:27:18.191Z,1.60
2023-05-19T10:29:53.047Z,1.63
2023-05-19T10:32:26.234Z,1.70
2023-05-19T10:35:47.191Z,1.40
2023-05-19T10:38:30.055Z,2.00
2023-05-19T10:41:07.705Z,2.13
2023-05-19T10:43:48.175Z,1.70
2023-05-19T10:46:20.318Z,1.75
2023-05-19T10:48:49.169Z,1.35
2023-05-19T10:51:19.493Z,1.30
2023-05-19T10:53:51.013Z,1.63
2023-05-19T10:56:36.309Z,1.35
2023-05-19T10:59:05.571Z,1.70
2023-05-19T11:01:38.696Z,1.67
2023-05-19T11:04:11.971Z,1.45
2023-05-19T11:06:41.860Z,1.67
2023-05-19T11:09:19.507Z,1.52
2023-05-19T11:11:50.831Z,1.25
2023-05-19T11:14:20.459Z,1.00
2023-05-19T11:16:52.591Z,1.77
2023-05-19T11:19:34.497Z,1.67
2023-05-19T11:22:11.775Z,1.23
2023-05-19T11:24:44.869Z,1.75
2023-05-19T11:27:21.782Z,1.10
2023-05-19T11:29:52.159Z,1.60
2023-05-19T11:32:27.080Z,1.42
2023-05-19T11:34:58.397Z,1.50
2023-05-19T11:37:29.027Z,1.35
2023-05-19T11:39:57.850Z,1.60
2023-05-19T11:42:26.779Z,1.20
2023-05-19T11:44:59.268Z,1.27
2023-05-19T11:47:30.806Z,1.38
2023-05-19T11:50:02.807Z,1.30
2023-05-19T11:52:31.892Z,1.50
2023-05-19T11:55:04.196Z,1.85
2023-05-19T11:57:33.340Z,1.27
2023-05-19T12:00:09.436Z,1.25
2023-05-19T12:02:46.918Z,1.42
2023-05-19T12:05:22.821Z,1.50
2023-05-19T12:07:52.698Z,1.30
2023-05-19T12:10:26.550Z,1.23
2023-05-19T12:12:59.604Z,1.25
2023-05-19T12:15:29.053Z,1.27
2023-05-19T12:18:04.489Z,1.30
2023-05-19T12:20:36.349Z,1.65
2023-05-19T12:23:05.932Z,1.55
2023-05-19T12:25:35.533Z,1.48
2023-05-19T12:28:05.075Z,2.13
2023-05-19T12:30:35.407Z,1.50
2023-05-19T12:33:07.195Z,1.40
2023-05-19T12:35:40.492Z,1.48
2023-05-19T12:38:09.430Z,1.70
2023-05-19T12:40:41.001Z,1.27
2023-05-19T12:43:09.765Z,1.50
2023-05-19T12:45:39.122Z,1.10
2023-05-19T12:48:16.248Z,1.20
2023-05-19T12:50:46.426Z,1.40
2023-05-19T12:53:16.835Z,1.27
2023-05-19T12:55:48.825Z,1.58
2023-05-19T12:58:17.971Z,1.10
2023-05-19T13:00:49.911Z,1.20
2023-05-19T13:03:22.230Z,1.55
2023-05-19T13:05:54.030Z,1.52
2023-05-19T13:08:24.206Z,1.27
2023-05-19T13:10:52.927Z,1.27
2023-05-19T13:13:22.536Z,1.20
2023-05-19T13:15:51.543Z,1.02
2023-05-19T13:18:26.017Z,1.45
2023-05-19T13:20:55.384Z,1.45
2023-05-19T13:23:27.444Z,1.17
2023-05-19T13:25:56.188Z,1.10
2023-05-19T13:28:25.507Z,1.08
2023-05-19T13:30:54.790Z,1.30
2023-05-19T13:33:24.856Z,1.17
2023-05-19T13:35:54.797Z,1.55
2023-05-19T13:38:23.675Z,1.17
2023-05-19T13:40:52.325Z,1.40
2023-05-19T13:43:22.157Z,1.58
2023-05-19T13:45:51.564Z,1.52
2023-05-19T13:48:20.851Z,1.33
2023-05-19T13:50:55.929Z,1.30
2023-05-19T13:53:24.524Z,1.40
2023-05-19T13:55:56.458Z,1.30
2023-05-19T13:58:26.433Z,1.20
2023-05-19T14:00:57.285Z,1.20
2023-05-19T14:03:26.437Z,1.00
2023-05-19T14:05:57.452Z,1.05
2023-05-19T14:08:29.163Z,1.33
2023-05-19T14:10:58.257Z,1.10
2023-05-19T14:13:33.063Z,0.95
2023-05-19T14:16:08.468Z,1.05
2023-05-19T14:18:36.885Z,1.35
2023-05-19T14:21:08.459Z,1.02
2023-05-19T14:23:37.484Z,1.20
2023-05-19T14:26:06.451Z,1.02
2023-05-19T14:28:36.180Z,0.98
2023-05-19T14:31:07.026Z,1.27
2023-05-19T14:33:35.759Z,1.13
2023-05-19T14:36:06.532Z,1.40
2023-05-19T14:38:37.839Z,1.52
2023-05-19T14:41:07.111Z,1.15
2023-05-19T14:43:35.741Z,1.02
2023-05-19T14:46:04.171Z,0.85
2023-05-19T14:48:36.358Z,1.30
2023-05-19T14:51:06.951Z,1.02
2023-05-19T14:53:36.900Z,1.10
2023-05-19T14:56:08.378Z,1.20
2023-05-19T14:58:37.412Z,1.40
2023-05-19T15:01:06.998Z,1.33
2023-05-19T15:03:41.872Z,1.27
2023-05-19T15:06:11.912Z,1.08
2023-05-19T15:08:44.752Z,1.33
2023-05-19T15:11:13.790Z,1.33
2023-05-19T15:13:45.715Z,1.30
2023-05-19T15:16:17.041Z,1.40
2023-05-19T15:18:47.279Z,1.27
2023-05-19T15:21:16.068Z,1.23
2023-05-19T15:23:46.859Z,1.17
2023-05-19T15:26:16.220Z,1.60
2023-05-19T15:28:46.005Z,1.50
2023-05-19T15:31:14.517Z,1.40
2023-05-19T15:33:44.149Z,1.30
2023-05-19T15:36:16.537Z,1.25
2023-05-19T15:38:46.696Z,1.40
2023-05-19T15:41:14.927Z,1.30
2023-05-19T15:43:46.698Z,1.50
2023-05-19T15:46:19.707Z,1.70
2023-05-19T15:48:49.004Z,1.55
2023-05-19T15:51:19.024Z,1.85
2023-05-19T15:53:50.657Z,1.85
2023-05-19T15:56:19.415Z,1.80
2023-05-19T15:58:48.616Z,1.35
2023-05-19T16:01:22.413Z,1.70
2023-05-19T16:03:52.872Z,3.60
2023-05-19T16:06:21.728Z,5.70
2023-05-19T16:08:52.109Z,2.38
2023-05-19T16:11:23.011Z,3.17
2023-05-19T16:13:53.270Z,2.40
2023-05-19T16:16:23.915Z,2.20
2023-05-19T16:18:54.724Z,1.48
2023-05-19T16:21:24.373Z,1.70
2023-05-19T16:24:00.240Z,1.60
2023-05-19T16:26:29.132Z,1.90
2023-05-19T16:29:00.565Z,2.00
2023-05-19T16:31:29.822Z,2.08
2023-05-19T16:33:59.843Z,1.55
2023-05-19T16:36:28.946Z,2.47
2023-05-19T16:38:59.837Z,1.60
2023-05-19T16:41:30.201Z,1.63
2023-05-19T16:44:02.605Z,1.52
2023-05-19T16:46:33.386Z,2.05
2023-05-19T16:49:02.815Z,1.70
2023-05-19T16:51:32.765Z,2.22
2023-05-19T16:54:03.150Z,2.38
2023-05-19T16:56:32.360Z,2.10
2023-05-19T16:59:02.888Z,1.73
2023-05-19T17:01:34.910Z,1.70
2023-05-19T17:04:06.289Z,1.80
2023-05-19T17:06:35.459Z,1.70
2023-05-19T17:09:06.409Z,2.25
2023-05-19T17:11:43.166Z,1.60
2023-05-19T17:14:11.737Z,1.50
2023-05-19T17:16:42.342Z,1.90
2023-05-19T17:19:11.198Z,1.77
2023-05-19T17:21:41.702Z,1.85
2023-05-19T17:24:13.339Z,1.35
2023-05-19T17:26:42.372Z,1.80
2023-05-19T17:29:11.821Z,1.58
2023-05-19T17:31:42.714Z,1.38
2023-05-19T17:34:12.553Z,1.90
2023-05-19T17:36:42.389Z,1.60
2023-05-19T17:39:15.441Z,1.65
2023-05-19T17:41:44.946Z,1.83
2023-05-19T17:44:15.705Z,1.63
2023-05-19T17:46:44.540Z,1.60
2023-05-19T17:49:14.355Z,1.50
2023-05-19T17:51:43.784Z,1.63
2023-05-19T17:54:15.310Z,2.05
2023-05-19T17:56:45.861Z,1.98
2023-05-19T17:59:16.675Z,1.73
2023-05-19T18:01:46.399Z,1.67
2023-05-19T18:04:18.286Z,1.38
2023-05-19T18:06:48.975Z,2.03
2023-05-19T18:09:24.597Z,2.72
2023-05-19T18:11:55.174Z,1.17
2023-05-19T18:14:26.891Z,1.33
2023-05-19T18:16:55.895Z,1.50
2023-05-19T18:19:24.578Z,1.58
2023-05-19T18:21:53.874Z,1.55
2023-05-19T18:24:24.480Z,1.83
2023-05-19T18:26:53.665Z,1.50
2023-05-19T18:29:22.653Z,1.95
2023-05-19T18:31:51.063Z,1.40
2023-05-19T18:34:19.760Z,1.30
2023-05-19T18:36:51.804Z,1.60
2023-05-19T18:39:21.198Z,1.60
2023-05-19T18:41:51.281Z,1.40
2023-05-19T18:44:20.378Z,1.45
2023-05-19T18:46:50.562Z,1.23
2023-05-19T18:49:22.958Z,1.75
2023-05-19T18:51:52.177Z,1.23
2023-05-19T18:54:21.821Z,1.35
2023-05-19T18:56:54.249Z,1.80
2023-05-19T18:59:26.253Z,1.60
2023-05-19T19:01:57.552Z,1.30
2023-05-19T19:04:26.507Z,1.45
2023-05-19T19:06:56.480Z,1.33
2023-05-19T19:09:24.998Z,1.58
2023-05-19T19:11:55.829Z,1.42
2023-05-19T19:14:25.961Z,1.67
2023-05-19T19:16:57.544Z,1.75
2023-05-19T19:19:29.608Z,1.33
2023-05-19T19:22:00.607Z,1.50
2023-05-19T19:24:30.028Z,1.38
2023-05-19T19:26:59.704Z,1.50
2023-05-19T19:29:28.385Z,1.77
2023-05-19T19:32:01.737Z,1.13
2023-05-19T19:34:30.134Z,1.45
2023-05-19T19:36:59.073Z,1.20
2023-05-19T19:39:28.148Z,0.82
2023-05-19T19:41:57.415Z,1.08
2023-05-19T19:44:27.806Z,1.42
2023-05-19T19:46:56.895Z,1.55
2023-05-19T19:49:27.420Z,1.50
2023-05-19T19:51:56.367Z,1.42
2023-05-19T19:54:29.996Z,1.50
2023-05-19T19:56:58.290Z,1.30
2023-05-19T19:59:30.626Z,1.65
2023-05-19T20:02:04.431Z,1.60
2023-05-19T20:04:34.543Z,1.52
2023-05-19T20:07:03.517Z,1.23
2023-05-19T20:09:33.702Z,1.40
2023-05-19T20:12:03.431Z,1.42
2023-05-19T20:14:35.197Z,1.60
2023-05-19T20:17:07.307Z,1.25
2023-05-19T20:19:39.164Z,1.67
2023-05-19T20:22:09.606Z,1.50
2023-05-19T20:24:39.337Z,1.70
2023-05-19T20:27:10.069Z,1.40
2023-05-19T20:29:40.500Z,1.90
2023-05-19T20:32:11.310Z,1.75
2023-05-19T20:34:39.968Z,1.52
2023-05-19T20:37:09.230Z,1.80
2023-05-19T20:39:38.401Z,1.60
2023-05-19T20:42:09.533Z,1.88
2023-05-19T20:44:40.065Z,1.70
2023-05-19T20:47:09.771Z,2.15
2023-05-19T20:49:39.574Z,1.63
2023-05-19T20:52:08.757Z,1.85
2023-05-19T20:54:37.488Z,1.80
2023-05-19T20:57:09.414Z,1.90
2023-05-19T20:59:41.393Z,2.00
2023-05-19T21:02:11.716Z,1.70
2023-05-19T21:04:40.987Z,2.00
2023-05-19T21:07:13.829Z,1.80
2023-05-19T21:09:46.715Z,1.42
2023-05-19T21:12:16.727Z,1.67
2023-05-19T21:14:52.163Z,1.98
2023-05-19T21:17:22.414Z,2.50
2023-05-19T21:19:56.347Z,1.70
2023-05-19T21:22:25.930Z,1.90
2023-05-19T21:24:54.471Z,1.77
2023-05-19T21:27:24.338Z,2.08
2023-05-19T21:29:55.374Z,1.88
2023-05-19T21:32:24.829Z,1.77
2023-05-19T21:34:54.631Z,1.70
2023-05-19T21:37:26.099Z,2.00
2023-05-19T21:39:57.343Z,2.00
2023-05-19T21:42:27.511Z,1.88
2023-05-19T21:44:59.389Z,1.60
2023-05-19T21:47:28.699Z,1.70
2023-05-19T21:49:58.106Z,1.67
2023-05-19T21:52:32.527Z,1.80
2023-05-19T21:55:02.781Z,2.08
2023-05-19T21:57:32.244Z,1.90
2023-05-19T22:00:02.936Z,1.88
2023-05-19T22:02:42.434Z,1.95
2023-05-19T22:05:15.691Z,2.00
2023-05-19T22:07:44.316Z,2.00
2023-05-19T22:10:16.156Z,2.20
2023-05-19T22:12:47.675Z,2.03
2023-05-19T22:15:22.396Z,2.00
2023-05-19T22:17:52.737Z,2.03
2023-05-19T22:20:22.036Z,2.00
2023-05-19T22:22:52.140Z,1.85
2023-05-19T22:25:23.563Z,1.90
2023-05-19T22:27:52.435Z,2.05
2023-05-19T22:30:23.340Z,1.80
2023-05-19T22:32:53.488Z,1.80
2023-05-19T22:35:27.068Z,2.25
2023-05-19T22:37:58.875Z,2.08
2023-05-19T22:40:32.167Z,2.30
2023-05-19T22:43:01.351Z,1.80
2023-05-19T22:45:33.759Z,1.92
2023-05-19T22:48:06.237Z,2.30
2023-05-19T22:50:39.842Z,2.30
2023-05-19T22:53:11.090Z,2.40
2023-05-19T22:55:42.298Z,1.70
2023-05-19T22:58:12.976Z,2.17
2023-05-19T23:00:44.732Z,2.17
2023-05-19T23:03:13.999Z,2.10
2023-05-19T23:05:43.751Z,1.90
2023-05-19T23:08:12.624Z,1.92
2023-05-19T23:10:44.070Z,1.88
2023-05-19T23:13:14.808Z,1.70
2023-05-19T23:15:45.363Z,1.67
2023-05-19T23:18:15.787Z,3.15
2023-05-19T23:20:48.726Z,1.90
2023-05-19T23:23:20.073Z,2.22
2023-05-19T23:25:49.316Z,2.38
2023-05-19T23:28:20.457Z,2.20
2023-05-19T23:30:55.029Z,2.20
2023-05-19T23:33:24.058Z,2.20
2023-05-19T23:35:53.229Z,2.13
2023-05-19T23:38:24.260Z,1.77
2023-05-19T23:40:53.287Z,2.05
2023-05-19T23:43:21.964Z,2.05
2023-05-19T23:45:52.509Z,1.75
2023-05-19T23:48:22.474Z,1.90
2023-05-19T23:50:51.433Z,2.13
2023-05-19T23:53:20.797Z,2.10
2023-05-19T23:55:51.732Z,2.40
2023-05-19T23:58:23.365Z,1.65
